KJOT/JOT METAR and TAF weather

Enter ICAO airport designator
Station Type Date Time Source
KJOT METAR 2020/01/27 13:55 UTC NOAA

KJOT 271355Z AUTO 00000KT 4SM BR OVC009 00/M02 A2997 RMK AO2 T10051020


Station Type Date Time Source
KJOT Decoded METAR 2020/01/27 13:55 UTC NOAA

Joliet, Joliet Regional Airport, IL, United States (KJOT) 41-31-05N 088-10-31W
Jan 27, 2020 - 08:55 AM EST / 2020.01.27 1355 UTC
Wind: Calm:0
Visibility: 4 mile(s):0
Sky conditions: overcast
Weather: mist
Temperature: 31.1 F (-0.5 C)
Dew Point: 28.4 F (-2.0 C)
Relative Humidity: 89%
Pressure (altimeter): 29.97 in. Hg (1014 hPa)
ob: KJOT 271355Z AUTO 00000KT 4SM BR OVC009 00/M02 A2997 RMK AO2 T10051020
cycle: 14

Station Type Date Time Source
KJOT TAF UTC NOAA

Error!

Example: see airport list